sensor_id;sensor_type;location;lat;lon;timestamp;P1;durP1;ratioP1;P2;durP2;ratioP2
8661;SDS011;29684;47.722;9.388;2022-08-25T00:01:38;1.10;;;1.00;;
8661;SDS011;29684;47.722;9.388;2022-08-25T00:04:25;1.20;;;1.10;;
8661;SDS011;29684;47.722;9.388;2022-08-25T00:07:09;1.93;;;1.50;;
8661;SDS011;29684;47.722;9.388;2022-08-25T00:09:54;2.63;;;1.33;;
8661;SDS011;29684;47.722;9.388;2022-08-25T00:12:38;1.20;;;1.10;;
8661;SDS011;29684;47.722;9.388;2022-08-25T00:15:22;1.83;;;1.30;;
8661;SDS011;29684;47.722;9.388;2022-08-25T00:18:07;1.40;;;1.30;;
8661;SDS011;29684;47.722;9.388;2022-08-25T00:20:51;1.80;;;1.23;;
8661;SDS011;29684;47.722;9.388;2022-08-25T00:23:35;0.93;;;0.83;;
8661;SDS011;29684;47.722;9.388;2022-08-25T00:26:20;3.37;;;2.57;;
8661;SDS011;29684;47.722;9.388;2022-08-25T00:29:04;1.67;;;1.10;;
8661;SDS011;29684;47.722;9.388;2022-08-25T00:31:49;1.00;;;0.90;;
8661;SDS011;29684;47.722;9.388;2022-08-25T00:34:36;1.47;;;1.00;;
8661;SDS011;29684;47.722;9.388;2022-08-25T00:37:21;2.03;;;1.10;;
8661;SDS011;29684;47.722;9.388;2022-08-25T00:40:05;1.53;;;1.23;;
8661;SDS011;29684;47.722;9.388;2022-08-25T00:42:50;1.47;;;1.03;;
8661;SDS011;29684;47.722;9.388;2022-08-25T00:45:35;3.17;;;1.20;;
8661;SDS011;29684;47.722;9.388;2022-08-25T00:48:20;0.90;;;0.90;;
8661;SDS011;29684;47.722;9.388;2022-08-25T00:51:04;1.10;;;1.00;;
8661;SDS011;29684;47.722;9.388;2022-08-25T00:53:50;2.27;;;1.63;;
8661;SDS011;29684;47.722;9.388;2022-08-25T00:56:35;1.50;;;1.20;;
8661;SDS011;29684;47.722;9.388;2022-08-25T00:59:20;1.37;;;1.17;;
8661;SDS011;29684;47.722;9.388;2022-08-25T01:02:06;1.10;;;0.83;;
8661;SDS011;29684;47.722;9.388;2022-08-25T01:04:51;1.23;;;1.10;;
8661;SDS011;29684;47.722;9.388;2022-08-25T01:07:35;1.03;;;0.93;;
8661;SDS011;29684;47.722;9.388;2022-08-25T01:10:20;2.23;;;1.43;;
8661;SDS011;29684;47.722;9.388;2022-08-25T01:13:08;1.33;;;1.23;;
8661;SDS011;29684;47.722;9.388;2022-08-25T01:15:57;1.43;;;1.33;;
8661;SDS011;29684;47.722;9.388;2022-08-25T01:18:46;1.90;;;1.50;;
8661;SDS011;29684;47.722;9.388;2022-08-25T01:21:38;1.50;;;1.40;;
8661;SDS011;29684;47.722;9.388;2022-08-25T01:27:28;1.30;;;1.10;;
8661;SDS011;29684;47.722;9.388;2022-08-25T01:30:12;1.40;;;1.30;;
8661;SDS011;29684;47.722;9.388;2022-08-25T01:32:57;2.27;;;1.30;;
8661;SDS011;29684;47.722;9.388;2022-08-25T01:35:41;1.53;;;1.43;;
8661;SDS011;29684;47.722;9.388;2022-08-25T01:38:27;1.60;;;1.37;;
8661;SDS011;29684;47.722;9.388;2022-08-25T01:41:11;1.33;;;1.20;;
8661;SDS011;29684;47.722;9.388;2022-08-25T01:43:59;1.83;;;1.30;;
8661;SDS011;29684;47.722;9.388;2022-08-25T01:46:44;2.30;;;1.40;;
8661;SDS011;29684;47.722;9.388;2022-08-25T01:49:29;1.43;;;1.20;;
8661;SDS011;29684;47.722;9.388;2022-08-25T01:55:10;1.10;;;1.00;;
8661;SDS011;29684;47.722;9.388;2022-08-25T01:57:56;1.30;;;1.20;;
8661;SDS011;29684;47.722;9.388;2022-08-25T02:00:43;1.23;;;1.10;;
8661;SDS011;29684;47.722;9.388;2022-08-25T02:03:35;1.20;;;1.00;;
8661;SDS011;29684;47.722;9.388;2022-08-25T02:06:26;2.50;;;1.27;;
8661;SDS011;29684;47.722;9.388;2022-08-25T02:09:15;1.40;;;1.13;;
8661;SDS011;29684;47.722;9.388;2022-08-25T02:12:00;1.30;;;1.20;;
8661;SDS011;29684;47.722;9.388;2022-08-25T02:14:45;3.63;;;1.63;;
8661;SDS011;29684;47.722;9.388;2022-08-25T02:17:29;1.43;;;1.20;;
8661;SDS011;29684;47.722;9.388;2022-08-25T02:20:13;2.57;;;1.50;;
8661;SDS011;29684;47.722;9.388;2022-08-25T02:22:58;2.27;;;1.60;;
8661;SDS011;29684;47.722;9.388;2022-08-25T02:25:43;1.50;;;1.20;;
8661;SDS011;29684;47.722;9.388;2022-08-25T02:28:27;3.83;;;1.47;;
8661;SDS011;29684;47.722;9.388;2022-08-25T02:31:12;1.77;;;1.43;;
8661;SDS011;29684;47.722;9.388;2022-08-25T02:33:57;2.83;;;1.33;;
8661;SDS011;29684;47.722;9.388;2022-08-25T02:36:42;1.80;;;1.43;;
8661;SDS011;29684;47.722;9.388;2022-08-25T02:39:26;3.97;;;1.77;;
8661;SDS011;29684;47.722;9.388;2022-08-25T02:42:11;1.50;;;1.40;;
8661;SDS011;29684;47.722;9.388;2022-08-25T02:44:55;2.10;;;1.57;;
8661;SDS011;29684;47.722;9.388;2022-08-25T02:47:39;1.20;;;1.10;;
8661;SDS011;29684;47.722;9.388;2022-08-25T02:50:24;1.73;;;1.40;;
8661;SDS011;29684;47.722;9.388;2022-08-25T02:53:08;2.63;;;1.63;;
8661;SDS011;29684;47.722;9.388;2022-08-25T02:55:53;3.17;;;1.50;;
8661;SDS011;29684;47.722;9.388;2022-08-25T02:58:38;1.40;;;1.30;;
8661;SDS011;29684;47.722;9.388;2022-08-25T03:01:23;1.30;;;1.20;;
8661;SDS011;29684;47.722;9.388;2022-08-25T03:04:07;1.37;;;1.07;;
8661;SDS011;29684;47.722;9.388;2022-08-25T03:06:52;1.43;;;1.13;;
8661;SDS011;29684;47.722;9.388;2022-08-25T03:09:36;2.00;;;1.60;;
8661;SDS011;29684;47.722;9.388;2022-08-25T03:12:20;1.43;;;1.33;;
8661;SDS011;29684;47.722;9.388;2022-08-25T03:15:05;2.00;;;1.20;;
8661;SDS011;29684;47.722;9.388;2022-08-25T03:17:50;1.50;;;1.30;;
8661;SDS011;29684;47.722;9.388;2022-08-25T03:20:35;1.70;;;1.50;;
8661;SDS011;29684;47.722;9.388;2022-08-25T03:23:19;1.83;;;1.30;;
8661;SDS011;29684;47.722;9.388;2022-08-25T03:26:03;2.73;;;2.30;;
8661;SDS011;29684;47.722;9.388;2022-08-25T03:29:06;3.33;;;1.80;;
8661;SDS011;29684;47.722;9.388;2022-08-25T03:31:51;2.20;;;1.43;;
8661;SDS011;29684;47.722;9.388;2022-08-25T03:34:37;1.80;;;1.60;;
8661;SDS011;29684;47.722;9.388;2022-08-25T03:37:21;1.50;;;1.40;;
8661;SDS011;29684;47.722;9.388;2022-08-25T03:40:07;2.00;;;1.80;;
8661;SDS011;29684;47.722;9.388;2022-08-25T03:42:53;3.10;;;2.03;;
8661;SDS011;29684;47.722;9.388;2022-08-25T03:45:40;2.10;;;1.37;;
8661;SDS011;29684;47.722;9.388;2022-08-25T03:48:25;2.13;;;1.60;;
8661;SDS011;29684;47.722;9.388;2022-08-25T03:51:09;1.97;;;1.40;;
8661;SDS011;29684;47.722;9.388;2022-08-25T03:53:53;1.60;;;1.33;;
8661;SDS011;29684;47.722;9.388;2022-08-25T03:56:38;1.90;;;1.23;;
8661;SDS011;29684;47.722;9.388;2022-08-25T03:59:25;3.00;;;1.97;;
8661;SDS011;29684;47.722;9.388;2022-08-25T04:02:10;3.97;;;2.10;;
8661;SDS011;29684;47.722;9.388;2022-08-25T04:04:54;2.10;;;1.50;;
8661;SDS011;29684;47.722;9.388;2022-08-25T04:07:41;2.83;;;2.00;;
8661;SDS011;29684;47.722;9.388;2022-08-25T04:10:26;2.03;;;1.87;;
8661;SDS011;29684;47.722;9.388;2022-08-25T04:13:13;2.30;;;1.87;;
8661;SDS011;29684;47.722;9.388;2022-08-25T04:15:57;2.00;;;1.43;;
8661;SDS011;29684;47.722;9.388;2022-08-25T04:18:42;1.63;;;1.30;;
8661;SDS011;29684;47.722;9.388;2022-08-25T04:21:27;1.90;;;1.70;;
8661;SDS011;29684;47.722;9.388;2022-08-25T04:24:13;2.47;;;1.87;;
8661;SDS011;29684;47.722;9.388;2022-08-25T04:26:58;2.03;;;1.83;;
8661;SDS011;29684;47.722;9.388;2022-08-25T04:29:42;2.57;;;2.07;;
8661;SDS011;29684;47.722;9.388;2022-08-25T04:32:26;2.73;;;1.87;;
8661;SDS011;29684;47.722;9.388;2022-08-25T04:35:10;4.00;;;1.93;;
8661;SDS011;29684;47.722;9.388;2022-08-25T04:37:54;3.57;;;1.47;;
8661;SDS011;29684;47.722;9.388;2022-08-25T04:40:38;2.13;;;1.47;;
8661;SDS011;29684;47.722;9.388;2022-08-25T04:43:23;3.33;;;2.63;;
8661;SDS011;29684;47.722;9.388;2022-08-25T04:46:08;1.63;;;1.53;;
8661;SDS011;29684;47.722;9.388;2022-08-25T04:48:55;1.93;;;1.50;;
8661;SDS011;29684;47.722;9.388;2022-08-25T04:51:40;4.70;;;2.33;;
8661;SDS011;29684;47.722;9.388;2022-08-25T04:54:25;2.80;;;1.87;;
8661;SDS011;29684;47.722;9.388;2022-08-25T04:57:11;2.67;;;2.37;;
8661;SDS011;29684;47.722;9.388;2022-08-25T04:59:55;2.90;;;2.17;;
8661;SDS011;29684;47.722;9.388;2022-08-25T05:02:42;3.87;;;2.30;;
8661;SDS011;29684;47.722;9.388;2022-08-25T05:05:29;2.50;;;1.90;;
8661;SDS011;29684;47.722;9.388;2022-08-25T05:08:14;2.07;;;1.57;;
8661;SDS011;29684;47.722;9.388;2022-08-25T05:10:58;2.97;;;1.97;;
8661;SDS011;29684;47.722;9.388;2022-08-25T05:13:47;2.17;;;1.77;;
8661;SDS011;29684;47.722;9.388;2022-08-25T05:16:33;2.97;;;2.07;;
8661;SDS011;29684;47.722;9.388;2022-08-25T05:19:18;2.67;;;2.13;;
8661;SDS011;29684;47.722;9.388;2022-08-25T05:22:02;2.60;;;2.40;;
8661;SDS011;29684;47.722;9.388;2022-08-25T05:24:47;4.90;;;2.53;;
8661;SDS011;29684;47.722;9.388;2022-08-25T05:27:32;4.10;;;2.23;;
8661;SDS011;29684;47.722;9.388;2022-08-25T05:30:16;4.10;;;2.40;;
8661;SDS011;29684;47.722;9.388;2022-08-25T05:33:01;2.47;;;1.70;;
8661;SDS011;29684;47.722;9.388;2022-08-25T05:35:46;1.77;;;1.67;;
8661;SDS011;29684;47.722;9.388;2022-08-25T05:38:30;11.20;;;1.97;;
8661;SDS011;29684;47.722;9.388;2022-08-25T05:41:16;2.70;;;2.00;;
8661;SDS011;29684;47.722;9.388;2022-08-25T05:44:03;2.43;;;2.00;;
8661;SDS011;29684;47.722;9.388;2022-08-25T05:46:47;3.83;;;2.10;;
8661;SDS011;29684;47.722;9.388;2022-08-25T05:49:32;3.63;;;2.77;;
8661;SDS011;29684;47.722;9.388;2022-08-25T05:52:16;3.10;;;2.20;;
8661;SDS011;29684;47.722;9.388;2022-08-25T05:55:01;3.87;;;2.20;;
8661;SDS011;29684;47.722;9.388;2022-08-25T05:57:45;3.73;;;2.67;;
8661;SDS011;29684;47.722;9.388;2022-08-25T06:00:30;2.37;;;1.77;;
8661;SDS011;29684;47.722;9.388;2022-08-25T06:03:14;3.63;;;2.30;;
8661;SDS011;29684;47.722;9.388;2022-08-25T06:06:05;2.40;;;2.10;;
8661;SDS011;29684;47.722;9.388;2022-08-25T06:08:50;6.57;;;2.70;;
8661;SDS011;29684;47.722;9.388;2022-08-25T06:11:35;3.57;;;2.33;;
8661;SDS011;29684;47.722;9.388;2022-08-25T06:14:20;4.47;;;2.70;;
8661;SDS011;29684;47.722;9.388;2022-08-25T06:17:06;6.33;;;2.27;;
8661;SDS011;29684;47.722;9.388;2022-08-25T06:19:51;2.97;;;2.07;;
8661;SDS011;29684;47.722;9.388;2022-08-25T06:22:36;3.40;;;2.30;;
8661;SDS011;29684;47.722;9.388;2022-08-25T06:25:21;6.00;;;2.77;;
8661;SDS011;29684;47.722;9.388;2022-08-25T06:28:07;2.60;;;2.30;;
8661;SDS011;29684;47.722;9.388;2022-08-25T06:30:56;3.53;;;2.10;;
8661;SDS011;29684;47.722;9.388;2022-08-25T06:33:42;3.00;;;2.37;;
8661;SDS011;29684;47.722;9.388;2022-08-25T06:36:27;2.27;;;1.90;;
8661;SDS011;29684;47.722;9.388;2022-08-25T06:39:11;9.33;;;2.47;;
8661;SDS011;29684;47.722;9.388;2022-08-25T06:41:55;2.87;;;2.10;;
8661;SDS011;29684;47.722;9.388;2022-08-25T06:44:40;3.10;;;2.23;;
8661;SDS011;29684;47.722;9.388;2022-08-25T06:47:28;4.27;;;2.37;;
8661;SDS011;29684;47.722;9.388;2022-08-25T06:50:12;4.17;;;2.00;;
8661;SDS011;29684;47.722;9.388;2022-08-25T06:52:57;1.60;;;1.50;;
8661;SDS011;29684;47.722;9.388;2022-08-25T06:55:41;2.10;;;1.90;;
8661;SDS011;29684;47.722;9.388;2022-08-25T06:58:25;3.07;;;1.63;;
8661;SDS011;29684;47.722;9.388;2022-08-25T07:01:11;3.00;;;2.00;;
8661;SDS011;29684;47.722;9.388;2022-08-25T07:04:07;2.53;;;2.10;;
8661;SDS011;29684;47.722;9.388;2022-08-25T07:06:51;2.17;;;1.70;;
8661;SDS011;29684;47.722;9.388;2022-08-25T07:09:35;2.87;;;1.80;;
8661;SDS011;29684;47.722;9.388;2022-08-25T07:12:20;4.57;;;2.80;;
8661;SDS011;29684;47.722;9.388;2022-08-25T07:15:04;3.93;;;2.23;;
8661;SDS011;29684;47.722;9.388;2022-08-25T07:17:49;4.50;;;2.33;;
8661;SDS011;29684;47.722;9.388;2022-08-25T07:20:33;1.93;;;1.73;;
8661;SDS011;29684;47.722;9.388;2022-08-25T07:23:18;2.30;;;1.90;;
8661;SDS011;29684;47.722;9.388;2022-08-25T07:26:13;2.07;;;1.87;;
8661;SDS011;29684;47.722;9.388;2022-08-25T07:29:05;2.27;;;1.60;;
8661;SDS011;29684;47.722;9.388;2022-08-25T07:31:52;3.93;;;2.83;;
8661;SDS011;29684;47.722;9.388;2022-08-25T07:34:37;2.67;;;2.07;;
8661;SDS011;29684;47.722;9.388;2022-08-25T07:37:41;3.37;;;1.80;;
8661;SDS011;29684;47.722;9.388;2022-08-25T07:40:36;2.37;;;1.60;;
8661;SDS011;29684;47.722;9.388;2022-08-25T07:43:21;2.00;;;1.73;;
8661;SDS011;29684;47.722;9.388;2022-08-25T07:46:05;2.40;;;1.87;;
8661;SDS011;29684;47.722;9.388;2022-08-25T07:48:49;2.30;;;1.47;;
8661;SDS011;29684;47.722;9.388;2022-08-25T07:51:34;4.80;;;2.50;;
8661;SDS011;29684;47.722;9.388;2022-08-25T07:54:19;2.60;;;2.10;;
8661;SDS011;29684;47.722;9.388;2022-08-25T07:57:05;2.37;;;1.83;;
8661;SDS011;29684;47.722;9.388;2022-08-25T07:59:50;5.87;;;2.00;;
8661;SDS011;29684;47.722;9.388;2022-08-25T08:02:38;3.63;;;2.10;;
8661;SDS011;29684;47.722;9.388;2022-08-25T08:05:24;3.40;;;2.30;;
8661;SDS011;29684;47.722;9.388;2022-08-25T08:08:08;2.73;;;2.10;;
8661;SDS011;29684;47.722;9.388;2022-08-25T08:10:53;3.63;;;1.87;;
8661;SDS011;29684;47.722;9.388;2022-08-25T08:13:38;3.57;;;2.07;;
8661;SDS011;29684;47.722;9.388;2022-08-25T08:16:23;3.93;;;1.73;;
8661;SDS011;29684;47.722;9.388;2022-08-25T08:19:09;1.97;;;1.60;;
8661;SDS011;29684;47.722;9.388;2022-08-25T08:21:53;1.73;;;1.60;;
8661;SDS011;29684;47.722;9.388;2022-08-25T08:24:37;2.70;;;1.70;;
8661;SDS011;29684;47.722;9.388;2022-08-25T08:27:22;1.27;;;1.17;;
8661;SDS011;29684;47.722;9.388;2022-08-25T08:30:07;1.80;;;1.57;;
8661;SDS011;29684;47.722;9.388;2022-08-25T08:32:52;4.47;;;2.00;;
8661;SDS011;29684;47.722;9.388;2022-08-25T08:35:38;2.97;;;2.03;;
8661;SDS011;29684;47.722;9.388;2022-08-25T08:38:23;1.70;;;1.60;;
8661;SDS011;29684;47.722;9.388;2022-08-25T08:56:40;2.10;;;1.80;;
8661;SDS011;29684;47.722;9.388;2022-08-25T08:59:28;1.83;;;1.73;;
8661;SDS011;29684;47.722;9.388;2022-08-25T09:03:04;4.40;;;2.33;;
8661;SDS011;29684;47.722;9.388;2022-08-25T09:05:41;1.50;;;1.40;;
8661;SDS011;29684;47.722;9.388;2022-08-25T09:08:28;2.37;;;2.03;;
8661;SDS011;29684;47.722;9.388;2022-08-25T09:14:09;1.80;;;1.37;;
8661;SDS011;29684;47.722;9.388;2022-08-25T09:23:21;1.77;;;1.50;;
8661;SDS011;29684;47.722;9.388;2022-08-25T09:26:34;1.60;;;1.50;;
8661;SDS011;29684;47.722;9.388;2022-08-25T09:29:26;2.67;;;2.07;;
8661;SDS011;29684;47.722;9.388;2022-08-25T09:32:22;5.33;;;2.20;;
8661;SDS011;29684;47.722;9.388;2022-08-25T09:35:08;2.23;;;1.57;;
8661;SDS011;29684;47.722;9.388;2022-08-25T09:38:10;1.70;;;1.60;;
8661;SDS011;29684;47.722;9.388;2022-08-25T09:40:57;2.17;;;1.73;;
8661;SDS011;29684;47.722;9.388;2022-08-25T09:43:43;2.27;;;1.70;;
8661;SDS011;29684;47.722;9.388;2022-08-25T09:46:36;2.37;;;1.83;;
8661;SDS011;29684;47.722;9.388;2022-08-25T09:49:20;1.50;;;1.40;;
8661;SDS011;29684;47.722;9.388;2022-08-25T09:55:24;1.70;;;1.60;;
8661;SDS011;29684;47.722;9.388;2022-08-25T09:58:14;1.80;;;1.50;;
8661;SDS011;29684;47.722;9.388;2022-08-25T10:04:03;2.43;;;1.97;;
8661;SDS011;29684;47.722;9.388;2022-08-25T10:06:48;2.30;;;1.50;;
8661;SDS011;29684;47.722;9.388;2022-08-25T10:09:36;1.52;;;1.40;;
8661;SDS011;29684;47.722;9.388;2022-08-25T10:12:33;2.17;;;1.83;;
8661;SDS011;29684;47.722;9.388;2022-08-25T10:21:12;2.75;;;1.83;;
8661;SDS011;29684;47.722;9.388;2022-08-25T10:23:58;2.22;;;1.67;;
8661;SDS011;29684;47.722;9.388;2022-08-25T10:38:56;2.30;;;1.80;;
8661;SDS011;29684;47.722;9.388;2022-08-25T10:44:42;2.53;;;1.87;;
8661;SDS011;29684;47.722;9.388;2022-08-25T10:48:18;4.95;;;1.75;;
8661;SDS011;29684;47.722;9.388;2022-08-25T10:54:30;2.40;;;1.52;;
8661;SDS011;29684;47.722;9.388;2022-08-25T11:00:22;2.55;;;1.65;;
8661;SDS011;29684;47.722;9.388;2022-08-25T11:03:31;2.33;;;1.88;;
8661;SDS011;29684;47.722;9.388;2022-08-25T11:06:31;2.08;;;1.70;;
8661;SDS011;29684;47.722;9.388;2022-08-25T11:09:29;1.70;;;1.60;;
8661;SDS011;29684;47.722;9.388;2022-08-25T11:12:30;2.50;;;1.63;;
8661;SDS011;29684;47.722;9.388;2022-08-25T11:15:20;2.20;;;2.00;;
8661;SDS011;29684;47.722;9.388;2022-08-25T11:18:10;2.30;;;2.05;;
8661;SDS011;29684;47.722;9.388;2022-08-25T11:21:07;2.90;;;2.00;;
8661;SDS011;29684;47.722;9.388;2022-08-25T11:24:00;2.00;;;1.80;;
8661;SDS011;29684;47.722;9.388;2022-08-25T11:26:54;1.88;;;1.77;;
8661;SDS011;29684;47.722;9.388;2022-08-25T11:29:40;2.33;;;1.80;;
8661;SDS011;29684;47.722;9.388;2022-08-25T11:32:26;2.45;;;1.77;;
8661;SDS011;29684;47.722;9.388;2022-08-25T11:35:16;2.00;;;1.50;;
8661;SDS011;29684;47.722;9.388;2022-08-25T11:51:05;2.08;;;1.63;;
8661;SDS011;29684;47.722;9.388;2022-08-25T11:57:08;1.55;;;1.40;;
8661;SDS011;29684;47.722;9.388;2022-08-25T12:00:06;2.70;;;1.70;;
8661;SDS011;29684;47.722;9.388;2022-08-25T12:06:21;1.70;;;1.60;;
8661;SDS011;29684;47.722;9.388;2022-08-25T12:11:56;2.10;;;1.40;;
8661;SDS011;29684;47.722;9.388;2022-08-25T12:14:41;1.80;;;1.45;;
8661;SDS011;29684;47.722;9.388;2022-08-25T12:17:35;3.00;;;1.80;;
8661;SDS011;29684;47.722;9.388;2022-08-25T12:20:28;1.45;;;1.35;;
8661;SDS011;29684;47.722;9.388;2022-08-25T12:23:39;1.60;;;1.50;;
8661;SDS011;29684;47.722;9.388;2022-08-25T12:26:28;1.58;;;1.40;;
8661;SDS011;29684;47.722;9.388;2022-08-25T12:36:07;1.77;;;1.25;;
8661;SDS011;29684;47.722;9.388;2022-08-25T12:41:21;1.83;;;1.58;;
8661;SDS011;29684;47.722;9.388;2022-08-25T12:44:18;1.98;;;1.35;;
8661;SDS011;29684;47.722;9.388;2022-08-25T12:53:27;1.92;;;1.50;;
8661;SDS011;29684;47.722;9.388;2022-08-25T12:56:23;1.90;;;1.52;;
8661;SDS011;29684;47.722;9.388;2022-08-25T12:59:16;2.28;;;1.70;;
8661;SDS011;29684;47.722;9.388;2022-08-25T13:02:13;2.17;;;1.50;;
8661;SDS011;29684;47.722;9.388;2022-08-25T13:08:20;2.20;;;1.35;;
8661;SDS011;29684;47.722;9.388;2022-08-25T13:11:11;1.85;;;1.42;;
8661;SDS011;29684;47.722;9.388;2022-08-25T13:14:32;1.20;;;1.10;;
8661;SDS011;29684;47.722;9.388;2022-08-25T13:17:29;2.47;;;1.40;;
8661;SDS011;29684;47.722;9.388;2022-08-25T13:20:17;1.55;;;1.45;;
8661;SDS011;29684;47.722;9.388;2022-08-25T13:23:06;1.65;;;1.50;;
8661;SDS011;29684;47.722;9.388;2022-08-25T13:25:51;1.30;;;1.17;;
8661;SDS011;29684;47.722;9.388;2022-08-25T13:28:37;1.45;;;1.20;;
8661;SDS011;29684;47.722;9.388;2022-08-25T13:31:22;1.95;;;1.40;;
8661;SDS011;29684;47.722;9.388;2022-08-25T13:34:16;1.48;;;1.38;;
8661;SDS011;29684;47.722;9.388;2022-08-25T13:37:06;1.30;;;1.20;;
8661;SDS011;29684;47.722;9.388;2022-08-25T13:43:28;1.50;;;1.15;;
8661;SDS011;29684;47.722;9.388;2022-08-25T13:46:12;1.30;;;1.20;;
8661;SDS011;29684;47.722;9.388;2022-08-25T13:49:05;1.15;;;1.05;;
8661;SDS011;29684;47.722;9.388;2022-08-25T13:51:51;2.08;;;1.33;;
8661;SDS011;29684;47.722;9.388;2022-08-25T13:54:37;1.95;;;1.45;;
8661;SDS011;29684;47.722;9.388;2022-08-25T13:57:24;1.65;;;1.30;;
8661;SDS011;29684;47.722;9.388;2022-08-25T14:00:11;1.50;;;1.35;;
8661;SDS011;29684;47.722;9.388;2022-08-25T14:02:57;2.33;;;1.23;;
8661;SDS011;29684;47.722;9.388;2022-08-25T14:05:42;1.15;;;1.05;;
8661;SDS011;29684;47.722;9.388;2022-08-25T14:08:33;1.20;;;1.10;;
8661;SDS011;29684;47.722;9.388;2022-08-25T14:11:41;1.30;;;1.20;;
8661;SDS011;29684;47.722;9.388;2022-08-25T14:14:30;2.53;;;1.25;;
8661;SDS011;29684;47.722;9.388;2022-08-25T14:17:17;1.48;;;1.27;;
8661;SDS011;29684;47.722;9.388;2022-08-25T14:20:03;2.17;;;1.30;;
8661;SDS011;29684;47.722;9.388;2022-08-25T14:22:49;1.00;;;0.98;;
8661;SDS011;29684;47.722;9.388;2022-08-25T14:25:38;1.92;;;1.05;;
8661;SDS011;29684;47.722;9.388;2022-08-25T14:28:24;1.65;;;1.45;;
8661;SDS011;29684;47.722;9.388;2022-08-25T14:31:13;1.30;;;1.20;;
8661;SDS011;29684;47.722;9.388;2022-08-25T14:36:48;1.00;;;1.00;;
8661;SDS011;29684;47.722;9.388;2022-08-25T14:39:32;0.90;;;0.90;;
8661;SDS011;29684;47.722;9.388;2022-08-25T14:42:16;1.08;;;0.98;;
8661;SDS011;29684;47.722;9.388;2022-08-25T14:45:05;1.80;;;1.00;;
8661;SDS011;29684;47.722;9.388;2022-08-25T14:47:50;0.82;;;0.82;;
8661;SDS011;29684;47.722;9.388;2022-08-25T14:50:38;0.80;;;0.80;;
8661;SDS011;29684;47.722;9.388;2022-08-25T14:53:23;1.10;;;1.00;;
8661;SDS011;29684;47.722;9.388;2022-08-25T14:56:09;0.77;;;0.70;;
8661;SDS011;29684;47.722;9.388;2022-08-25T14:58:53;0.60;;;0.60;;
8661;SDS011;29684;47.722;9.388;2022-08-25T15:01:37;1.50;;;0.80;;
8661;SDS011;29684;47.722;9.388;2022-08-25T15:04:23;0.60;;;0.60;;
8661;SDS011;29684;47.722;9.388;2022-08-25T15:07:10;0.60;;;0.60;;
8661;SDS011;29684;47.722;9.388;2022-08-25T15:10:14;0.85;;;0.60;;
8661;SDS011;29684;47.722;9.388;2022-08-25T15:12:58;0.70;;;0.65;;
8661;SDS011;29684;47.722;9.388;2022-08-25T15:15:43;0.60;;;0.60;;
8661;SDS011;29684;47.722;9.388;2022-08-25T15:18:28;1.00;;;0.90;;
8661;SDS011;29684;47.722;9.388;2022-08-25T15:21:12;0.60;;;0.60;;
8661;SDS011;29684;47.722;9.388;2022-08-25T15:23:56;0.70;;;0.70;;
8661;SDS011;29684;47.722;9.388;2022-08-25T15:26:51;0.90;;;0.60;;
8661;SDS011;29684;47.722;9.388;2022-08-25T15:29:37;0.60;;;0.50;;
8661;SDS011;29684;47.722;9.388;2022-08-25T15:32:23;0.60;;;0.60;;
8661;SDS011;29684;47.722;9.388;2022-08-25T15:35:07;0.95;;;0.80;;
8661;SDS011;29684;47.722;9.388;2022-08-25T15:37:55;0.98;;;0.50;;
8661;SDS011;29684;47.722;9.388;2022-08-25T15:40:39;1.10;;;1.00;;
8661;SDS011;29684;47.722;9.388;2022-08-25T15:43:23;0.90;;;0.90;;
8661;SDS011;29684;47.722;9.388;2022-08-25T15:46:08;1.75;;;1.08;;
8661;SDS011;29684;47.722;9.388;2022-08-25T15:48:56;1.00;;;0.90;;
8661;SDS011;29684;47.722;9.388;2022-08-25T15:51:42;1.00;;;1.00;;
8661;SDS011;29684;47.722;9.388;2022-08-25T15:54:27;1.05;;;0.93;;
8661;SDS011;29684;47.722;9.388;2022-08-25T15:57:12;1.13;;;0.90;;
8661;SDS011;29684;47.722;9.388;2022-08-25T15:59:56;1.75;;;0.90;;
8661;SDS011;29684;47.722;9.388;2022-08-25T16:02:40;1.00;;;0.98;;
8661;SDS011;29684;47.722;9.388;2022-08-25T16:05:24;0.90;;;0.82;;
8661;SDS011;29684;47.722;9.388;2022-08-25T16:08:08;0.82;;;0.80;;
8661;SDS011;29684;47.722;9.388;2022-08-25T16:10:53;1.00;;;0.90;;
8661;SDS011;29684;47.722;9.388;2022-08-25T16:13:38;1.27;;;1.17;;
8661;SDS011;29684;47.722;9.388;2022-08-25T16:16:23;1.25;;;1.17;;
8661;SDS011;29684;47.722;9.388;2022-08-25T16:19:09;1.20;;;1.10;;
8661;SDS011;29684;47.722;9.388;2022-08-25T16:21:53;1.10;;;1.00;;
8661;SDS011;29684;47.722;9.388;2022-08-25T16:24:38;1.48;;;1.30;;
8661;SDS011;29684;47.722;9.388;2022-08-25T16:27:24;1.05;;;1.00;;
8661;SDS011;29684;47.722;9.388;2022-08-25T16:30:09;1.42;;;1.33;;
8661;SDS011;29684;47.722;9.388;2022-08-25T16:32:55;1.15;;;1.10;;
8661;SDS011;29684;47.722;9.388;2022-08-25T16:35:39;1.05;;;0.95;;
8661;SDS011;29684;47.722;9.388;2022-08-25T16:38:25;1.65;;;1.27;;
8661;SDS011;29684;47.722;9.388;2022-08-25T16:41:11;1.65;;;1.40;;
8661;SDS011;29684;47.722;9.388;2022-08-25T16:43:58;1.83;;;1.25;;
8661;SDS011;29684;47.722;9.388;2022-08-25T16:46:46;1.40;;;1.30;;
8661;SDS011;29684;47.722;9.388;2022-08-25T16:49:31;1.52;;;1.23;;
8661;SDS011;29684;47.722;9.388;2022-08-25T16:52:15;1.90;;;1.30;;
8661;SDS011;29684;47.722;9.388;2022-08-25T16:55:18;3.67;;;3.33;;
8661;SDS011;29684;47.722;9.388;2022-08-25T16:58:03;2.60;;;1.88;;
8661;SDS011;29684;47.722;9.388;2022-08-25T17:00:47;0.90;;;0.90;;
8661;SDS011;29684;47.722;9.388;2022-08-25T17:03:32;1.27;;;1.17;;
8661;SDS011;29684;47.722;9.388;2022-08-25T17:06:17;4.03;;;3.13;;
8661;SDS011;29684;47.722;9.388;2022-08-25T17:09:02;1.35;;;1.23;;
8661;SDS011;29684;47.722;9.388;2022-08-25T17:11:47;2.03;;;1.67;;
8661;SDS011;29684;47.722;9.388;2022-08-25T17:14:31;1.20;;;1.02;;
8661;SDS011;29684;47.722;9.388;2022-08-25T17:17:15;1.55;;;1.15;;
8661;SDS011;29684;47.722;9.388;2022-08-25T17:19:59;1.42;;;1.33;;
8661;SDS011;29684;47.722;9.388;2022-08-25T17:22:43;1.35;;;1.25;;
8661;SDS011;29684;47.722;9.388;2022-08-25T17:25:28;2.53;;;1.50;;
8661;SDS011;29684;47.722;9.388;2022-08-25T17:28:12;2.60;;;1.50;;
8661;SDS011;29684;47.722;9.388;2022-08-25T17:30:56;1.45;;;1.35;;
8661;SDS011;29684;47.722;9.388;2022-08-25T17:33:42;3.03;;;1.40;;
8661;SDS011;29684;47.722;9.388;2022-08-25T17:36:27;1.40;;;1.30;;
8661;SDS011;29684;47.722;9.388;2022-08-25T17:39:13;1.58;;;1.48;;
8661;SDS011;29684;47.722;9.388;2022-08-25T17:41:57;1.33;;;1.20;;
8661;SDS011;29684;47.722;9.388;2022-08-25T17:44:41;1.40;;;1.30;;
8661;SDS011;29684;47.722;9.388;2022-08-25T17:47:26;2.85;;;2.53;;
8661;SDS011;29684;47.722;9.388;2022-08-25T17:50:10;1.60;;;1.50;;
8661;SDS011;29684;47.722;9.388;2022-08-25T17:52:54;2.35;;;1.73;;
8661;SDS011;29684;47.722;9.388;2022-08-25T17:55:39;3.03;;;1.52;;
8661;SDS011;29684;47.722;9.388;2022-08-25T17:58:25;2.53;;;2.03;;
8661;SDS011;29684;47.722;9.388;2022-08-25T18:01:14;1.70;;;1.60;;
8661;SDS011;29684;47.722;9.388;2022-08-25T18:04:03;2.35;;;1.52;;
8661;SDS011;29684;47.722;9.388;2022-08-25T18:06:48;2.65;;;2.13;;
8661;SDS011;29684;47.722;9.388;2022-08-25T18:09:34;4.30;;;3.00;;
8661;SDS011;29684;47.722;9.388;2022-08-25T18:12:18;4.00;;;2.88;;
8661;SDS011;29684;47.722;9.388;2022-08-25T18:15:03;4.78;;;2.28;;
8661;SDS011;29684;47.722;9.388;2022-08-25T18:17:48;9.43;;;6.43;;
8661;SDS011;29684;47.722;9.388;2022-08-25T18:20:32;8.10;;;6.15;;
8661;SDS011;29684;47.722;9.388;2022-08-25T18:23:16;2.38;;;1.90;;
8661;SDS011;29684;47.722;9.388;2022-08-25T18:26:04;2.20;;;1.70;;
8661;SDS011;29684;47.722;9.388;2022-08-25T18:28:48;3.58;;;2.00;;
8661;SDS011;29684;47.722;9.388;2022-08-25T18:31:32;5.32;;;2.40;;
8661;SDS011;29684;47.722;9.388;2022-08-25T18:34:17;4.55;;;2.35;;
8661;SDS011;29684;47.722;9.388;2022-08-25T18:37:02;4.50;;;1.95;;
8661;SDS011;29684;47.722;9.388;2022-08-25T18:40:05;2.08;;;1.90;;
8661;SDS011;29684;47.722;9.388;2022-08-25T18:43:06;1.60;;;1.50;;
8661;SDS011;29684;47.722;9.388;2022-08-25T18:45:52;1.53;;;1.20;;
8661;SDS011;29684;47.722;9.388;2022-08-25T18:48:37;1.40;;;1.30;;
8661;SDS011;29684;47.722;9.388;2022-08-25T18:51:22;1.63;;;1.53;;
8661;SDS011;29684;47.722;9.388;2022-08-25T18:54:06;1.63;;;1.53;;